PST,Max TemperatureF,Mean TemperatureF,Min TemperatureF,Max Dew PointF,MeanDew PointF,Min DewpointF,Max Humidity, Mean Humidity, Min Humidity, Max Sea Level PressureIn, Mean Sea Level PressureIn, Min Sea Level PressureIn, Max VisibilityMiles, Mean VisibilityMiles, Min VisibilityMiles, Max Wind SpeedMPH, Mean Wind SpeedMPH, Max Gust SpeedMPH,PrecipitationIn, CloudCover, Events, WindDirDegrees
2013-1-1,50,38,25,13,8,3,56,35,19,30.35,30.29,30.24,10,10,10,10,3,,0.00,2,,180
2013-1-2,55,36,16,9,5,0,49,32,15,30.32,30.24,30.16,10,10,10,9,3,,0.00,0,,194
2013-1-3,55,36,18,10,5,-1,48,31,15,30.36,30.28,30.21,10,10,10,8,3,,0.00,0,,179
2013-1-4,55,37,19,9,4,1,48,31,13,30.40,30.32,30.25,10,10,10,8,3,,0.00,0,,207
2013-1-5,55,37,19,9,4,1,50,28,12,30.40,30.29,30.15,10,10,10,6,3,,0.00,0,,166
2013-1-6,53,42,32,30,21,2,60,41,24,30.13,30.05,29.97,10,10,10,15,7,21,0.00,3,,239
2013-1-7,63,50,36,24,13,8,62,27,14,30.12,30.08,30.01,10,10,10,21,9,30,0.00,2,,296
2013-1-8,66,49,32,30,22,10,56,39,24,30.23,30.17,30.10,10,10,10,9,5,,0.00,2,,166
2013-1-9,64,47,30,30,26,19,69,44,27,30.24,30.07,29.81,10,10,10,15,4,21,0.00,5,,185
2013-1-10,54,46,35,34,18,10,54,36,21,30.00,29.83,29.76,10,10,10,31,18,44,0.00,1,,241
2013-1-11,46,36,25,15,9,-1,60,37,14,30.12,30.05,30.00,10,10,10,10,7,,0.00,2,,236
2013-1-12,44,34,21,12,7,2,51,36,19,30.20,30.13,30.08,10,10,10,9,4,,0.00,0,,246
2013-1-13,42,27,12,5,2,-2,59,36,20,30.25,30.18,30.10,10,10,10,16,4,,0.00,0,,6
2013-1-14,39,27,15,-1,-5,-9,43,27,14,30.46,30.37,30.25,10,10,10,10,5,,0.00,0,,160
2013-1-15,48,32,15,5,-4,-11,36,24,14,30.60,30.50,30.44,10,10,10,7,3,,0.00,1,,220
2013-1-16,55,36,18,13,6,-1,50,31,18,30.55,30.45,30.35,10,10,10,9,4,,0.00,0,,224
2013-1-17,60,38,16,11,5,1,52,31,13,30.44,30.36,30.25,10,10,10,10,2,,0.00,0,,232
2013-1-18,61,40,19,6,1,-4,38,24,11,30.38,30.30,30.24,10,10,10,9,2,,0.00,0,,220
2013-1-19,63,41,19,5,0,-6,36,22,9,30.41,30.32,30.25,10,10,10,12,3,,0.00,0,,203
2013-1-20,64,40,17,4,-1,-8,33,20,8,30.34,30.27,30.19,10,10,10,9,2,,0.00,0,,202
2013-1-21,66,42,19,4,-1,-7,32,18,8,30.30,30.23,30.17,10,10,10,9,3,,0.00,0,,230
2013-1-22,66,44,23,7,2,-7,31,19,10,30.29,30.21,30.15,10,10,10,9,4,,0.00,3,,202
2013-1-23,57,44,30,34,8,0,65,23,14,30.23,30.17,30.12,10,10,10,7,1,,0.00,7,Rain,202
2013-1-24,54,50,45,50,46,33,97,87,56,30.26,30.20,30.14,10,9,4,8,3,,0.15,8,Rain,240
2013-1-25,57,52,48,52,49,47,100,92,70,30.25,30.14,30.03,10,6,3,5,2,,0.12,8,Rain,257
2013-1-26,63,56,48,52,49,38,100,91,59,30.03,29.94,29.81,10,5,0,10,1,,0.05,6,Fog-Rain,216
2013-1-27,55,50,45,38,29,23,74,46,29,29.96,29.87,29.80,10,10,10,24,11,30,0.00,3,,210
2013-1-28,52,44,35,24,18,10,62,40,19,30.14,30.06,29.97,10,10,10,14,9,17,0.00,2,,270
2013-1-29,57,42,27,30,26,22,81,57,32,30.27,30.16,30.09,10,10,10,7,1,,0.00,3,,184
2013-1-30,64,49,34,31,29,27,76,53,27,30.38,30.30,30.25,10,10,10,9,3,,0.00,1,,181
2013-1-31,66,49,32,32,29,26,82,53,25,30.33,30.26,30.18,10,10,10,7,4,,0.00,0,,171